Zug, Switzerland
Current Conditions -  °F | °C
As of 9:50 AM on Wednesday 22 Oct 2014 (Local Time) from LSME Reporting Station
Broken Clouds Broken Clouds  
Wind Chill: 39°   Ceiling: 3800
Heat Index: 43°   Visibility: 6mi
Dew Point: 36°   Wind: 6mph
Humidity: 76%   Direction: 230°SW
Pressure: 30.18"   Gusts: NA
Location:  47.18°N, 8.52°E
Report Text: LSME 220750Z 23005KT 190V270 9999 FEW027 BKN038 BKN069 06/02 Q1022 RMK WHT
Loading
Personal Weather Stations






























Interactive Weather Map
Tropical Storm Tracking
New forecast layout! Learn more

10-Day Weather Forecast

Advertisements
Track Severe Weather on mobile